Time;durP1;ratioP1;P1;durP2;ratioP2;P2;SDS_P1;SDS_P2;PMS_P1;PMS_P2;Temp;Humidity;BMP_temperature;BMP_pressure;BME280_temperature;BME280_humidity;BME280_pressure;Samples;Min_cycle;Max_cycle;Signal;HPM_P1;HPM_P2
2021/05/15 00:05:14;;;;;;;1.97;0.70;;;;;;;10.72;100.00;98396.56;10500730;28;20261;-75
2021/05/15 00:10:33;;;;;;;3.20;0.80;;;;;;;10.62;100.00;98395.53;10501299;28;20199;-75
2021/05/15 00:15:52;;;;;;;1.00;0.83;;;;;;;10.71;100.00;98393.06;10502655;28;20179;-74
2021/05/15 00:21:12;;;;;;;1.10;0.80;;;;;;;10.60;100.00;98386.16;10500005;28;20595;-74
2021/05/15 00:26:30;;;;;;;0.90;0.63;;;;;;;10.50;100.00;98381.59;10502168;28;20210;-74
2021/05/15 00:31:49;;;;;;;0.90;0.60;;;;;;;10.47;100.00;98385.94;10499113;28;20236;-74
2021/05/15 00:37:08;;;;;;;1.10;0.90;;;;;;;10.48;100.00;98389.47;10500913;28;20175;-74
2021/05/15 00:42:27;;;;;;;1.00;0.70;;;;;;;10.52;100.00;98385.47;10501654;28;20178;-74
2021/05/15 00:47:46;;;;;;;1.10;0.50;;;;;;;10.55;100.00;98390.16;10499934;28;20191;-75
2021/05/15 00:53:05;;;;;;;0.90;0.60;;;;;;;10.65;100.00;98382.94;10500068;28;20537;-75
2021/05/15 00:58:25;;;;;;;0.90;0.60;;;;;;;10.65;100.00;98378.22;10499953;28;20167;-76
2021/05/15 01:03:43;;;;;;;1.57;0.83;;;;;;;10.61;100.00;98380.22;10499563;28;20249;-75
2021/05/15 01:09:03;;;;;;;0.90;0.60;;;;;;;10.50;100.00;98374.09;10500244;28;20210;-75
2021/05/15 01:14:22;;;;;;;2.90;0.90;;;;;;;10.46;100.00;98376.16;10500375;28;20174;-74
2021/05/15 01:19:41;;;;;;;1.00;0.60;;;;;;;10.38;100.00;98377.44;10497628;28;20178;-74
2021/05/15 01:25:00;;;;;;;2.80;2.67;;;;;;;10.33;100.00;98383.41;10498777;28;20175;-74
2021/05/15 01:30:21;;;;;;;1.10;0.80;;;;;;;10.29;100.00;98375.63;10499039;28;20230;-75
2021/05/15 01:35:40;;;;;;;0.90;0.60;;;;;;;10.28;100.00;98380.34;10498208;28;20178;-75
2021/05/15 01:41:10;;;;;;;0.90;0.60;;;;;;;10.31;100.00;98373.22;10497986;28;20171;-76
2021/05/15 01:46:29;;;;;;;0.90;0.70;;;;;;;10.29;100.00;98381.91;10498218;28;20174;-75
2021/05/15 01:51:48;;;;;;;0.97;0.77;;;;;;;10.19;100.00;98377.31;10498310;28;20214;-76
2021/05/15 01:57:08;;;;;;;1.00;0.67;;;;;;;10.26;100.00;98379.22;10498465;28;20186;-75
2021/05/15 02:02:27;;;;;;;0.80;0.40;;;;;;;10.28;100.00;98388.59;10497133;28;20190;-76
2021/05/15 02:07:45;;;;;;;1.87;1.13;;;;;;;10.32;100.00;98384.59;10498144;28;20174;-75
2021/05/15 02:13:04;;;;;;;0.90;0.60;;;;;;;10.36;100.00;98379.81;10497189;28;20167;-74
2021/05/15 02:18:24;;;;;;;0.90;0.53;;;;;;;10.30;100.00;98377.94;10496064;28;20641;-75
2021/05/15 02:23:43;;;;;;;0.80;0.50;;;;;;;10.25;100.00;98378.41;10497914;28;20187;-76
2021/05/15 02:29:02;;;;;;;0.93;0.70;;;;;;;10.22;100.00;98372.97;10496139;28;20234;-76
2021/05/15 02:34:21;;;;;;;1.60;1.00;;;;;;;10.17;100.00;98365.97;10495363;28;20261;-74
2021/05/15 02:39:40;;;;;;;1.20;0.60;;;;;;;10.17;100.00;98360.47;10497651;28;20210;-75
2021/05/15 02:44:59;;;;;;;1.40;0.70;;;;;;;10.10;100.00;98368.00;10497379;28;20174;-75
2021/05/15 02:50:18;;;;;;;2.07;1.03;;;;;;;9.93;100.00;98363.53;10495641;28;20574;-75
2021/05/15 02:55:37;;;;;;;1.10;0.77;;;;;;;9.81;100.00;98359.31;10497091;28;20171;-75
2021/05/15 03:00:55;;;;;;;1.57;1.07;;;;;;;9.73;100.00;98359.84;10496069;28;20179;-75
2021/05/15 03:06:14;;;;;;;0.93;0.80;;;;;;;9.67;100.00;98361.47;10494586;28;20578;-75
2021/05/15 03:11:34;;;;;;;4.30;1.17;;;;;;;9.56;100.00;98355.31;10496309;28;20203;-75
2021/05/15 03:16:53;;;;;;;3.10;1.00;;;;;;;9.58;100.00;98363.94;10494467;28;20261;-75
2021/05/15 03:22:12;;;;;;;1.00;0.77;;;;;;;9.41;100.00;98353.94;10496751;28;20171;-75
2021/05/15 03:27:32;;;;;;;1.20;0.73;;;;;;;9.35;100.00;98365.75;10496293;28;20218;-75
2021/05/15 03:32:51;;;;;;;1.03;0.90;;;;;;;9.31;100.00;98365.78;10502983;28;20202;-75
2021/05/15 03:38:10;;;;;;;0.90;0.60;;;;;;;9.31;100.00;98360.31;10502839;28;20178;-75
2021/05/15 03:43:29;;;;;;;6.10;0.80;;;;;;;9.20;100.00;98361.59;10503894;28;20178;-75
2021/05/15 03:48:48;;;;;;;0.90;0.70;;;;;;;9.16;100.00;98358.13;10501078;28;20263;-74
2021/05/15 03:54:07;;;;;;;1.20;1.00;;;;;;;9.13;100.00;98359.69;10503405;28;20395;-74
2021/05/15 03:59:26;;;;;;;1.10;0.93;;;;;;;9.08;100.00;98368.38;10502416;28;20166;-75
2021/05/15 04:04:45;;;;;;;4.70;2.40;;;;;;;8.97;100.00;98367.69;10501802;28;20198;-74
2021/05/15 04:10:04;;;;;;;1.73;0.83;;;;;;;8.81;100.00;98364.69;10501590;28;20202;-75
2021/05/15 04:21:02;;;;;;;1.10;0.70;;;;;;;8.76;100.00;98372.59;10500406;28;20175;-75
2021/05/15 04:26:21;;;;;;;2.00;0.87;;;;;;;8.88;100.00;98375.59;10501170;28;20222;-74
2021/05/15 04:31:40;;;;;;;0.93;0.70;;;;;;;8.82;100.00;98382.72;10500170;28;20245;-75
2021/05/15 04:36:59;;;;;;;1.50;1.07;;;;;;;8.99;100.00;98381.78;10500202;28;20220;-76
2021/05/15 04:42:18;;;;;;;1.43;1.00;;;;;;;9.02;100.00;98388.41;10500172;28;20174;-75
2021/05/15 04:47:38;;;;;;;0.97;0.87;;;;;;;8.97;100.00;98388.88;10500085;28;20186;-74
2021/05/15 04:52:58;;;;;;;1.03;0.90;;;;;;;9.21;100.00;98379.63;10500147;28;20202;-74
2021/05/15 04:58:16;;;;;;;0.90;0.80;;;;;;;9.49;100.00;98380.13;10500987;28;20637;-74
2021/05/15 05:03:36;;;;;;;1.50;1.40;;;;;;;9.74;100.00;98383.38;10499643;28;20629;-74
2021/05/15 05:08:55;;;;;;;1.13;1.00;;;;;;;9.87;100.00;98392.63;10500505;28;20289;-75
2021/05/15 05:14:14;;;;;;;1.20;0.93;;;;;;;10.03;100.00;98384.59;10499363;28;20656;-76
2021/05/15 05:19:33;;;;;;;3.87;1.80;;;;;;;10.22;100.00;98392.22;10497741;28;20171;-75
2021/05/15 05:24:52;;;;;;;3.80;1.37;;;;;;;10.28;100.00;98385.03;10500012;28;20213;-74
2021/05/15 05:30:16;;;;;;;1.30;1.20;;;;;;;10.26;100.00;98384.72;10498850;28;20276;-75
2021/05/15 05:35:36;;;;;;;1.03;0.73;;;;;;;10.08;100.00;98375.91;10511538;28;20211;-77
2021/05/15 05:40:55;;;;;;;1.10;0.87;;;;;;;9.88;100.00;98383.97;10498327;28;20206;-76
2021/05/15 05:46:14;;;;;;;1.00;0.87;;;;;;;10.05;100.00;98384.97;10497921;28;20290;-76
2021/05/15 05:51:33;;;;;;;1.00;0.70;;;;;;;10.16;100.00;98388.38;10496512;28;20567;-76
2021/05/15 05:56:52;;;;;;;2.33;1.20;;;;;;;10.49;100.00;98386.31;10497519;28;20186;-76
2021/05/15 06:02:11;;;;;;;1.70;1.20;;;;;;;10.88;100.00;98377.44;10497235;28;20175;-76
2021/05/15 06:07:30;;;;;;;1.33;1.00;;;;;;;11.28;100.00;98379.91;10498226;28;20183;-76
2021/05/15 06:12:49;;;;;;;1.20;1.03;;;;;;;11.61;100.00;98379.69;10498238;28;20626;-76
2021/05/15 06:18:08;;;;;;;2.10;1.40;;;;;;;11.81;100.00;98376.94;10495745;28;20170;-76
2021/05/15 06:23:28;;;;;;;1.20;0.93;;;;;;;11.79;100.00;98382.91;10496982;28;20171;-76
2021/05/15 06:28:47;;;;;;;1.00;0.90;;;;;;;12.09;100.00;98369.66;10497153;28;20234;-76
2021/05/15 06:34:06;;;;;;;1.30;1.10;;;;;;;12.05;100.00;98381.97;10496429;28;20190;-76
2021/05/15 06:39:24;;;;;;;1.27;1.17;;;;;;;12.49;100.00;98370.34;10496489;28;20542;-77
2021/05/15 06:44:43;;;;;;;2.30;1.00;;;;;;;12.84;99.84;98362.03;10496483;28;20249;-77
2021/05/15 06:50:05;;;;;;;1.20;1.00;;;;;;;12.79;95.58;98354.25;10494676;28;20676;-76
2021/05/15 06:55:26;;;;;;;1.37;1.10;;;;;;;13.30;92.52;98342.34;10497312;28;20179;-78
2021/05/15 07:00:45;;;;;;;1.50;0.90;;;;;;;13.77;93.87;98339.44;10496147;28;20171;-77
2021/05/15 07:06:05;;;;;;;1.30;0.90;;;;;;;14.43;83.59;98345.00;10502685;28;20170;-79
2021/05/15 07:11:23;;;;;;;2.13;0.80;;;;;;;14.44;80.33;98347.31;10503746;28;20644;-77
2021/05/15 07:16:43;;;;;;;1.20;1.10;;;;;;;13.96;85.73;98349.56;10503751;28;20628;-77
2021/05/15 07:22:02;;;;;;;0.93;0.80;;;;;;;14.10;84.57;98345.59;10503646;28;20178;-77
2021/05/15 07:27:22;;;;;;;1.47;1.20;;;;;;;14.33;86.31;98326.72;10504064;28;20223;-77
2021/05/15 07:32:41;;;;;;;1.83;1.00;;;;;;;14.78;80.50;98338.38;10501411;28;20206;-77
2021/05/15 07:37:59;;;;;;;1.20;0.87;;;;;;;14.55;81.93;98328.41;10504102;28;20175;-78
2021/05/15 07:43:23;;;;;;;2.17;1.03;;;;;;;13.70;69.40;98330.56;10503855;28;20175;-77
2021/05/15 07:48:43;;;;;;;1.00;0.80;;;;;;;14.54;69.62;98317.75;10502217;28;20210;-77
2021/05/15 07:54:02;;;;;;;2.43;1.67;;;;;;;14.29;68.45;98325.28;10503494;28;20548;-78
2021/05/15 07:59:22;;;;;;;1.00;0.77;;;;;;;13.83;70.98;98312.78;10503350;28;20182;-77
2021/05/15 08:04:41;;;;;;;1.20;0.80;;;;;;;13.68;73.67;98317.19;10500703;28;20182;-78
2021/05/15 08:10:00;;;;;;;1.20;1.07;;;;;;;13.39;75.62;98323.94;10502701;28;20668;-77
2021/05/15 08:15:19;;;;;;;1.20;1.00;;;;;;;13.60;74.91;98310.31;10500861;28;20167;-77
2021/05/15 08:20:38;;;;;;;3.03;0.87;;;;;;;13.79;74.24;98300.28;10501427;28;20262;-77
2021/05/15 08:25:57;;;;;;;4.97;1.30;;;;;;;14.23;71.91;98308.47;10501303;28;20175;-77
2021/05/15 08:31:16;;;;;;;1.60;0.90;;;;;;;13.92;73.52;98317.69;10501607;28;20690;-78
2021/05/15 08:36:35;;;;;;;1.00;0.80;;;;;;;13.61;74.84;98311.84;10500965;28;20225;-77
2021/05/15 08:41:54;;;;;;;1.57;0.80;;;;;;;13.51;74.75;98311.38;10500331;28;20179;-77
2021/05/15 08:47:17;;;;;;;1.23;0.80;;;;;;;14.10;72.78;98299.34;10500062;28;20198;-78
2021/05/15 08:52:39;;;;;;;0.97;0.60;;;;;;;14.06;72.91;98287.63;10499639;28;20222;-77
2021/05/15 08:58:00;;;;;;;0.83;0.57;;;;;;;13.90;73.83;98293.22;10501151;28;20198;-76
2021/05/15 09:03:20;;;;;;;1.10;0.97;;;;;;;14.25;71.82;98306.03;10499498;28;20167;-77
2021/05/15 09:08:39;;;;;;;1.07;0.77;;;;;;;14.23;73.13;98291.88;10499379;28;20656;-77
2021/05/15 09:13:58;;;;;;;1.60;1.20;;;;;;;14.19;73.27;98295.94;10500352;28;20185;-77
2021/05/15 09:19:28;;;;;;;1.50;0.97;;;;;;;13.37;78.65;98295.19;10498906;28;20170;-76
2021/05/15 09:24:47;;;;;;;1.37;1.07;;;;;;;12.62;84.25;98311.31;10500078;28;20175;-76
2021/05/15 09:30:07;;;;;;;1.00;0.77;;;;;;;12.15;88.94;98314.81;10499047;28;20230;-76
2021/05/15 09:35:26;;;;;;;1.53;0.97;;;;;;;12.36;91.82;98317.84;10497185;28;20523;-77
2021/05/15 09:40:45;;;;;;;1.17;0.70;;;;;;;13.88;82.72;98294.88;10498258;28;20175;-78
2021/05/15 09:46:04;;;;;;;1.93;0.80;;;;;;;15.47;73.30;98285.31;10499015;28;20198;-77
2021/05/15 09:51:23;;;;;;;1.73;1.00;;;;;;;16.22;67.32;98260.69;10496941;28;20293;-77
2021/05/15 09:56:53;;;;;;;1.20;0.93;;;;;;;16.76;63.80;98255.31;10498606;28;20215;-77
2021/05/15 10:02:17;;;;;;;2.10;0.70;;;;;;;17.25;60.26;98246.44;10497377;28;20178;-78
2021/05/15 10:07:37;;;;;;;1.17;0.80;;;;;;;16.41;65.36;98248.44;10498175;28;20170;-77
2021/05/15 10:12:57;;;;;;;1.20;0.80;;;;;;;17.03;65.42;98240.25;10498096;28;20618;-78
2021/05/15 10:18:17;;;;;;;1.00;0.50;;;;;;;18.52;56.35;98231.78;10496613;28;20182;-77
2021/05/15 10:23:38;;;;;;;1.20;1.07;;;;;;;16.07;61.21;98238.25;10497914;28;20178;-76
2021/05/15 10:29:05;;;;;;;1.10;0.77;;;;;;;17.59;57.72;98224.63;10497016;28;20230;-77
2021/05/15 10:34:31;;;;;;;1.00;0.60;;;;;;;18.57;51.39;98206.84;10496320;28;20187;-77
2021/05/15 10:39:50;;;;;;;1.17;0.60;;;;;;;18.97;48.37;98201.63;10496006;28;20203;-78
2021/05/15 10:45:10;;;;;;;1.03;0.77;;;;;;;18.76;53.25;98190.78;10497164;28;20199;-77
2021/05/15 10:50:29;;;;;;;1.10;0.70;;;;;;;17.10;57.38;98189.91;10495804;28;20567;-78
2021/05/15 10:56:01;;;;;;;1.20;0.90;;;;;;;16.36;59.43;98174.84;10497016;28;20171;-78
2021/05/15 11:01:21;;;;;;;2.63;0.90;;;;;;;17.90;58.39;98160.41;10497180;28;20246;-78
2021/05/15 11:06:40;;;;;;;0.90;0.57;;;;;;;19.27;52.15;98155.84;10497124;28;20184;-78
2021/05/15 11:12:13;;;;;;;1.10;0.70;;;;;;;19.26;49.02;98149.47;10496275;28;20285;-76
2021/05/15 11:17:31;;;;;;;1.00;0.83;;;;;;;18.85;49.13;98148.91;10495646;28;20179;-76
2021/05/15 11:22:53;;;;;;;1.00;0.67;;;;;;;20.11;49.32;98119.22;10496576;28;20183;-79
2021/05/15 11:28:21;;;;;;;1.00;0.70;;;;;;;19.75;51.44;98118.13;10496190;28;20283;-79
2021/05/15 11:33:42;;;;;;;1.10;0.90;;;;;;;17.97;57.89;98115.56;10495225;28;20175;-78
2021/05/15 11:39:01;;;;;;;0.90;0.60;;;;;;;17.43;54.20;98104.66;10496370;28;20167;-78
2021/05/15 11:44:21;;;;;;;0.90;0.60;;;;;;;17.47;54.24;98087.78;10496188;28;20869;-77
2021/05/15 11:49:40;;;;;;;1.10;0.70;;;;;;;17.79;53.55;98085.81;10495764;28;20206;-78
2021/05/15 11:55:01;;;;;;;1.00;0.60;;;;;;;19.10;51.67;98076.69;10503503;28;20178;-78
2021/05/15 12:00:26;;;;;;;3.97;0.90;;;;;;;17.71;53.36;98084.63;10503110;28;20209;-77
2021/05/15 12:05:46;;;;;;;0.90;0.50;;;;;;;17.19;60.39;98073.19;10501800;28;20179;-78
2021/05/15 12:11:05;;;;;;;1.93;0.83;;;;;;;17.41;71.07;98070.97;10502427;28;20202;-78
2021/05/15 12:16:24;;;;;;;1.00;0.60;;;;;;;17.55;61.98;98072.31;10502776;28;20178;-76
2021/05/15 12:21:55;;;;;;;1.00;0.60;;;;;;;16.63;59.61;98065.84;10502654;28;20206;-77
2021/05/15 12:27:20;;;;;;;1.43;0.60;;;;;;;17.10;56.33;98059.31;10501976;28;20218;-79
2021/05/15 12:32:44;;;;;;;0.90;0.50;;;;;;;16.88;56.66;98080.16;10500294;28;20198;-77
2021/05/15 12:38:07;;;;;;;0.90;0.50;;;;;;;15.78;60.16;98070.63;10501943;28;20178;-78
2021/05/15 12:43:26;;;;;;;1.00;0.60;;;;;;;15.04;66.80;98088.59;10501807;28;20672;-77
2021/05/15 12:49:12;;;;;;;2.90;0.80;;;;;;;13.85;83.68;98105.03;10500168;28;20202;-77
2021/05/15 12:54:32;;;;;;;3.40;1.23;;;;;;;13.18;99.63;98102.78;10501230;28;20696;-77
2021/05/15 12:59:54;;;;;;;2.80;0.83;;;;;;;12.87;100.00;98107.22;10499771;28;20178;-77
2021/05/15 13:05:16;;;;;;;1.17;0.90;;;;;;;13.10;100.00;98106.97;10498417;28;20170;-77
2021/05/15 13:10:37;;;;;;;1.00;0.60;;;;;;;13.19;100.00;98105.13;10499251;28;20203;-77
2021/05/15 13:15:56;;;;;;;1.00;0.63;;;;;;;13.12;100.00;98094.28;10499340;28;20266;-77
2021/05/15 13:21:15;;;;;;;7.23;1.57;;;;;;;14.01;100.00;98094.59;10497814;28;20175;-77
2021/05/15 13:26:35;;;;;;;1.60;1.00;;;;;;;14.99;98.64;98093.94;10499682;28;20215;-77
2021/05/15 13:31:53;;;;;;;1.00;0.73;;;;;;;15.39;82.86;98074.19;10497754;28;20256;-77
2021/05/15 13:37:13;;;;;;;1.00;0.80;;;;;;;15.95;84.95;98071.16;10499508;28;20170;-76
2021/05/15 13:42:32;;;;;;;0.90;0.63;;;;;;;16.33;74.39;98058.44;10499362;28;20633;-78
2021/05/15 13:47:52;;;;;;;1.00;0.60;;;;;;;16.25;81.29;98046.84;10496815;28;20178;-77
2021/05/15 13:53:11;;;;;;;1.00;0.60;;;;;;;15.42;78.32;98044.78;10497814;28;20190;-77
2021/05/15 13:58:30;;;;;;;1.30;0.80;;;;;;;16.64;79.50;98034.06;10497763;28;20239;-77
2021/05/15 14:03:49;;;;;;;1.10;0.90;;;;;;;18.69;69.50;98012.81;10497472;28;20637;-77
2021/05/15 14:09:10;;;;;;;1.10;0.70;;;;;;;18.16;56.38;98006.41;10497227;28;20202;-78
2021/05/15 14:14:29;;;;;;;1.37;0.90;;;;;;;17.32;59.21;98001.50;10497624;28;20182;-78
2021/05/15 14:19:49;;;;;;;1.07;0.60;;;;;;;17.42;60.94;97985.53;10496760;28;20689;-78
2021/05/15 14:25:08;;;;;;;2.03;0.83;;;;;;;18.91;55.99;97974.97;10498053;28;20220;-78
2021/05/15 14:30:27;;;;;;;1.23;0.90;;;;;;;20.68;51.83;97963.00;10496931;28;20252;-78
2021/05/15 14:35:46;;;;;;;1.67;0.70;;;;;;;21.36;50.74;97957.03;10496490;28;20171;-78
2021/05/15 14:41:05;;;;;;;1.30;0.90;;;;;;;20.27;53.78;97956.69;10497496;28;20201;-76
2021/05/15 14:46:24;;;;;;;1.33;0.80;;;;;;;16.47;61.88;97958.66;10497244;28;20542;-77
2021/05/15 14:51:44;;;;;;;1.40;0.80;;;;;;;17.14;62.59;97957.06;10496787;28;20210;-76
2021/05/15 14:57:03;;;;;;;1.27;0.80;;;;;;;17.31;62.69;97949.16;10497403;28;20174;-77
2021/05/15 15:02:23;;;;;;;1.20;0.80;;;;;;;17.74;60.14;97939.00;10496043;28;20186;-76
2021/05/15 15:07:42;;;;;;;1.20;1.10;;;;;;;18.26;57.87;97935.53;10497084;28;20215;-76
2021/05/15 15:13:01;;;;;;;1.57;0.90;;;;;;;18.38;57.64;97933.72;10497001;28;20178;-77
2021/05/15 15:18:20;;;;;;;1.00;0.70;;;;;;;18.10;57.48;97932.38;10495543;28;20180;-78
2021/05/15 15:23:40;;;;;;;1.33;0.80;;;;;;;17.71;60.47;97928.84;10498051;28;20175;-76
2021/05/15 15:28:59;;;;;;;1.17;0.87;;;;;;;17.34;65.87;97934.31;10502973;28;20752;-77
2021/05/15 15:34:19;;;;;;;2.20;1.17;;;;;;;16.78;70.54;97923.88;10502101;28;20198;-77
2021/05/15 15:39:38;;;;;;;1.27;1.17;;;;;;;15.43;76.33;97946.56;10504260;28;20253;-75
2021/05/15 15:44:57;;;;;;;1.10;0.90;;;;;;;13.54;86.19;97930.75;10503045;28;20230;-76
2021/05/15 15:50:16;;;;;;;1.00;0.70;;;;;;;12.78;94.42;97927.69;10502304;28;20287;-76
2021/05/15 15:55:35;;;;;;;1.00;0.70;;;;;;;13.14;99.66;97926.16;10503650;28;20183;-78
2021/05/15 16:00:55;;;;;;;10.43;1.70;;;;;;;13.78;100.00;97912.53;10502429;28;20212;-78
2021/05/15 16:06:14;;;;;;;1.43;1.10;;;;;;;14.35;96.61;97912.06;10500775;28;20182;-77
2021/05/15 16:11:33;;;;;;;1.10;0.90;;;;;;;14.70;82.68;97910.72;10502424;28;20646;-77
2021/05/15 16:16:52;;;;;;;1.53;1.43;;;;;;;14.69;84.62;97907.16;10500460;28;20529;-78
2021/05/15 16:22:12;;;;;;;3.27;1.07;;;;;;;14.87;86.73;97907.25;10501494;28;20648;-79
2021/05/15 16:27:31;;;;;;;1.00;0.70;;;;;;;15.32;82.25;97896.31;10500951;28;20218;-77
2021/05/15 16:32:50;;;;;;;1.10;0.83;;;;;;;15.62;79.90;97892.69;10499353;28;20229;-79
2021/05/15 16:38:09;;;;;;;1.57;0.83;;;;;;;15.50;77.88;97885.28;10501155;28;20175;-78
2021/05/15 16:43:28;;;;;;;1.20;0.90;;;;;;;15.34;81.44;97880.03;10501761;28;20202;-77
2021/05/15 16:48:47;;;;;;;1.43;1.00;;;;;;;15.21;81.12;97868.28;10500385;28;20233;-77
2021/05/15 16:54:06;;;;;;;2.27;0.93;;;;;;;15.41;82.79;97876.94;10501371;28;20646;-77
2021/05/15 16:59:26;;;;;;;1.13;1.03;;;;;;;15.04;79.35;97871.75;10500190;28;20175;-78
2021/05/15 17:04:45;;;;;;;1.20;0.90;;;;;;;14.92;77.80;97858.81;10499610;28;20625;-77
2021/05/15 17:10:04;;;;;;;1.90;1.60;;;;;;;14.85;83.50;97870.19;10500462;28;20210;-77
2021/05/15 17:15:24;;;;;;;1.63;1.53;;;;;;;14.75;86.32;97860.28;10500447;28;20621;-77
2021/05/15 17:20:43;;;;;;;1.23;0.77;;;;;;;14.75;83.03;97854.75;10499047;28;20261;-76
2021/05/15 17:26:05;;;;;;;1.97;0.70;;;;;;;14.65;83.14;97842.09;10499942;28;20186;-78
2021/05/15 17:31:25;;;;;;;0.90;0.60;;;;;;;14.59;85.33;97843.94;10499398;28;20567;-78
2021/05/15 17:36:44;;;;;;;1.00;0.70;;;;;;;14.50;84.35;97841.13;10499537;28;20175;-76
2021/05/15 17:42:03;;;;;;;1.20;0.87;;;;;;;14.35;87.71;97849.19;10499456;28;20190;-78
2021/05/15 17:47:22;;;;;;;1.30;0.70;;;;;;;14.34;96.42;97854.44;10496919;28;20175;-77
2021/05/15 17:52:41;;;;;;;11.93;4.40;;;;;;;14.23;94.45;97854.81;10498230;28;20231;-78
2021/05/15 17:58:00;;;;;;;8.13;5.10;;;;;;;14.25;97.46;97840.53;10498759;28;20186;-80
2021/05/15 18:03:19;;;;;;;4.73;2.00;;;;;;;14.30;97.99;97842.72;10496330;28;20182;-79
2021/05/15 18:08:41;;;;;;;2.40;1.67;;;;;;;14.30;100.00;97843.47;10498435;28;20608;-78
2021/05/15 18:14:01;;;;;;;12.17;5.13;;;;;;;14.28;100.00;97840.41;10497240;28;20210;-80
2021/05/15 18:19:23;;;;;;;3.73;3.43;;;;;;;14.29;100.00;97838.41;10495845;28;20178;-78
2021/05/15 18:24:43;;;;;;;5.90;3.50;;;;;;;14.22;100.00;97844.19;10498035;28;20620;-78
2021/05/15 18:30:04;;;;;;;10.63;3.83;;;;;;;14.25;100.00;97849.59;10497337;28;20319;-79
2021/05/15 18:35:22;;;;;;;1.77;1.23;;;;;;;13.89;100.00;97860.38;10496575;28;20582;-78
2021/05/15 18:40:41;;;;;;;1.53;1.20;;;;;;;13.72;100.00;97852.75;10497492;28;20171;-78
2021/05/15 18:46:01;;;;;;;3.53;2.07;;;;;;;13.70;100.00;97860.69;10497536;28;20381;-78
2021/05/15 18:51:21;;;;;;;2.77;1.80;;;;;;;13.84;100.00;97866.50;10494480;28;20578;-77
2021/05/15 18:56:40;;;;;;;1.90;1.70;;;;;;;13.82;100.00;97882.75;10497333;28;20171;-77
2021/05/15 19:01:59;;;;;;;1.60;1.50;;;;;;;13.54;100.00;97875.47;10502804;28;20540;-77
2021/05/15 19:07:19;;;;;;;3.53;1.67;;;;;;;13.24;100.00;97867.06;10505667;28;20171;-78
2021/05/15 19:12:38;;;;;;;1.33;1.23;;;;;;;13.19;100.00;97872.38;10504885;28;20211;-81
2021/05/15 19:17:57;;;;;;;3.50;2.97;;;;;;;13.13;100.00;97868.63;10502821;28;20178;-77
2021/05/15 19:23:16;;;;;;;1.73;1.50;;;;;;;13.11;100.00;97871.84;10505093;28;20178;-80
2021/05/15 19:28:35;;;;;;;2.90;2.00;;;;;;;12.89;100.00;97878.50;10504123;28;20587;-80
2021/05/15 19:33:55;;;;;;;7.60;4.80;;;;;;;12.65;100.00;97887.50;10503138;28;20166;-80
2021/05/15 19:39:14;;;;;;;2.60;1.47;;;;;;;12.48;100.00;97881.34;10504184;28;20171;-77
2021/05/15 19:44:33;;;;;;;1.60;1.20;;;;;;;12.46;100.00;97881.00;10504095;28;20198;-78
2021/05/15 19:49:53;;;;;;;1.20;1.10;;;;;;;12.31;100.00;97881.88;10502205;28;20220;-79
2021/05/15 19:55:12;;;;;;;1.20;1.03;;;;;;;12.18;100.00;97873.59;10502694;28;20179;-78
2021/05/15 20:00:31;;;;;;;2.70;1.40;;;;;;;12.13;100.00;97884.38;10503364;28;20179;-79
2021/05/15 20:05:50;;;;;;;2.77;2.33;;;;;;;12.06;100.00;97877.06;10502145;28;20187;-77
2021/05/15 20:11:09;;;;;;;1.97;1.77;;;;;;;11.89;100.00;97885.06;10501623;28;20657;-78
2021/05/15 20:16:28;;;;;;;1.87;1.40;;;;;;;11.89;100.00;97880.34;10502903;28;20179;-77
2021/05/15 20:21:47;;;;;;;1.60;1.50;;;;;;;11.89;100.00;97874.84;10501678;28;20196;-77
2021/05/15 20:27:06;;;;;;;1.83;0.70;;;;;;;11.81;100.00;97879.00;10486916;28;20258;-78
2021/05/15 20:32:25;;;;;;;0.90;0.57;;;;;;;11.65;100.00;97878.25;10500443;28;20206;-77
2021/05/15 20:37:44;;;;;;;0.90;0.60;;;;;;;11.46;100.00;97881.91;10501997;28;20178;-78
2021/05/15 20:43:06;;;;;;;1.40;0.80;;;;;;;11.28;100.00;97879.59;10501696;28;20199;-77
2021/05/15 20:48:35;;;;;;;0.93;0.60;;;;;;;11.19;100.00;97882.19;10500113;28;20203;-79
2021/05/15 20:53:54;;;;;;;0.93;0.63;;;;;;;11.09;100.00;97885.22;10501509;28;20645;-77
2021/05/15 20:59:13;;;;;;;1.10;0.77;;;;;;;10.98;100.00;97873.72;10501472;28;20365;-77
2021/05/15 21:04:33;;;;;;;1.00;0.73;;;;;;;11.02;100.00;97877.16;10499622;28;20611;-78
2021/05/15 21:09:54;;;;;;;1.60;1.20;;;;;;;11.07;100.00;97873.88;10500565;28;20572;-78
2021/05/15 21:15:14;;;;;;;1.97;1.23;;;;;;;11.16;100.00;97874.81;10499512;28;20175;-78
2021/05/15 21:20:33;;;;;;;1.33;1.23;;;;;;;11.27;100.00;97871.78;10499088;28;20179;-77
2021/05/15 21:25:52;;;;;;;1.70;1.60;;;;;;;11.36;100.00;97867.19;10499944;28;20178;-77
2021/05/15 21:31:11;;;;;;;1.13;0.93;;;;;;;11.37;100.00;97862.50;10499592;28;20596;-77
2021/05/15 21:36:30;;;;;;;1.03;0.80;;;;;;;11.34;100.00;97874.34;10498447;28;20163;-79
2021/05/15 21:41:49;;;;;;;1.50;1.20;;;;;;;11.31;100.00;97864.19;10499484;28;20194;-79
2021/05/15 21:47:08;;;;;;;0.90;0.70;;;;;;;11.25;100.00;97872.22;10497986;28;20261;-78
2021/05/15 21:52:28;;;;;;;1.20;0.87;;;;;;;11.10;100.00;97872.25;10498424;28;20206;-78
2021/05/15 21:57:47;;;;;;;1.00;0.70;;;;;;;11.05;100.00;97886.50;10498911;28;20693;-79
2021/05/15 22:03:07;;;;;;;1.97;1.10;;;;;;;10.98;100.00;97883.94;10496341;28;20629;-76
2021/05/15 22:08:28;;;;;;;1.30;0.90;;;;;;;11.01;100.00;97894.09;10498506;28;20620;-77
2021/05/15 22:13:49;;;;;;;1.00;0.70;;;;;;;10.90;100.00;97894.34;10498378;28;20183;-77
2021/05/15 22:19:08;;;;;;;3.70;0.80;;;;;;;10.79;100.00;97893.03;10496831;28;20250;-77
2021/05/15 22:24:28;;;;;;;0.80;0.40;;;;;;;10.56;100.00;97888.47;10496963;28;20667;-78
2021/05/15 22:29:47;;;;;;;0.80;0.40;;;;;;;10.43;100.00;97904.06;10497378;28;20226;-77
2021/05/15 22:35:07;;;;;;;0.90;0.63;;;;;;;10.31;100.00;97884.72;10495854;28;20639;-77
2021/05/15 22:40:26;;;;;;;2.03;0.87;;;;;;;10.29;100.00;97900.09;10496453;28;20247;-77
2021/05/15 22:45:45;;;;;;;1.00;0.60;;;;;;;10.25;100.00;97908.41;10497090;28;20178;-77
2021/05/15 22:51:10;;;;;;;19.40;0.80;;;;;;;10.10;100.00;97900.88;10495812;28;20680;-78
2021/05/15 22:56:30;;;;;;;1.20;0.50;;;;;;;10.07;100.00;97901.75;10497448;28;20179;-77
2021/05/15 23:01:52;;;;;;;0.80;0.50;;;;;;;10.06;100.00;97916.69;10480550;28;20540;-77
2021/05/15 23:07:17;;;;;;;0.80;0.40;;;;;;;10.07;100.00;97918.22;10482501;28;20556;-76
2021/05/15 23:12:36;;;;;;;6.53;0.90;;;;;;;10.01;100.00;97922.69;10496481;28;20206;-77
2021/05/15 23:17:59;;;;;;;0.90;0.63;;;;;;;10.02;100.00;97921.44;10495621;28;20613;-77
2021/05/15 23:23:18;;;;;;;1.00;0.70;;;;;;;10.05;100.00;97926.91;10496903;28;20273;-78
2021/05/15 23:28:37;;;;;;;0.90;0.60;;;;;;;10.04;100.00;97935.56;10494946;28;20222;-78
2021/05/15 23:33:56;;;;;;;0.80;0.50;;;;;;;9.96;100.00;97936.84;10495201;28;20239;-78
2021/05/15 23:39:15;;;;;;;4.63;0.93;;;;;;;10.02;100.00;97932.44;10496201;28;20549;-77
2021/05/15 23:44:34;;;;;;;1.20;0.70;;;;;;;9.99;100.00;97938.81;10497572;28;20170;-78
2021/05/15 23:49:53;;;;;;;1.03;0.80;;;;;;;10.03;100.00;97951.28;10502285;28;20202;-77
2021/05/15 23:55:14;;;;;;;0.90;0.50;;;;;;;10.02;100.00;97948.94;10503798;28;20171;-78
